Coral Coast — WDF5120 — position and weather

sailwx.info

Track history (hours):
 
Tides and Currents Weather Stations Pressure Air Temp Water Temp Dewpoint Dewpoint Depression Visibility Wind Speed Wind Dir Waves Ship Positions

Coral Coast

Owner: Dann MarineTowing, LC., Chesapeake City, MD. More information available from US FCC via Universal Licensing System and Coast Guard Vessel Documentation Center.

Last reported at 2017-Dec-07 08:22 UTC. Time now 2017-Dec-14 17:19 UTC.
Position N 41°01' W 073°53'.

Length 70 m; draft 5.3 m.

Type: Tug. MMSI: 367459570.

Date/timePositionNaut miles runAvg speedWind from/ knotsBaromVisibWave heightAir tempDewpointWater temp
2017-Dec-07 08:22N 41°01' W 073°53'3 9.0
2017-Dec-07 08:00N 40°58' W 073°54'5 9.2
2017-Dec-07 07:30N 40°53' W 073°56'5 9.5
2017-Dec-07 07:00N 40°49' W 073°58'5 9.9
2017-Dec-07 06:31N 40°45' W 074°01'3 5.4
2017-Dec-07 06:01N 40°43' W 073°58'5 9.6
2017-Dec-07 05:29N 40°47' W 073°55'3 5.7
2017-Dec-07 05:00N 40°47' W 073°52'1 2.4
2017-Dec-07 04:30N 40°46' W 073°51'0 0.0
2017-Dec-07 04:00N 40°46' W 073°51'0 0.0
2017-Dec-07 03:30N 40°46' W 073°51'0 0.0
2017-Dec-07 03:00N 40°46' W 073°51'0 0.0
2017-Dec-07 02:31N 40°46' W 073°51'0 0.0
2017-Dec-07 02:00N 40°46' W 073°51'0 0.0
2017-Dec-07 01:30N 40°46' W 073°51'0 0.0
2017-Dec-07 01:00N 40°46' W 073°51'0 0.0
2017-Dec-07 00:30N 40°46' W 073°51'0 0.0
2017-Dec-06 23:59N 40°46' W 073°51'0 0.0
2017-Dec-06 23:30N 40°46' W 073°51'0 0.0
2017-Dec-06 23:00N 40°46' W 073°51'0 0.0
2017-Dec-06 22:30N 40°46' W 073°51'0 0.0
2017-Dec-06 22:00N 40°46' W 073°51'0 0.0
2017-Dec-06 21:30N 40°46' W 073°51'0 0.0
2017-Dec-06 21:00N 40°46' W 073°51'  
2017-Dec-04 10:30N 39°55' W 075°08'0 0.0
2017-Dec-04 10:01N 39°55' W 075°08'0 0.0
2017-Dec-04 09:23N 39°55' W 075°08'0 0.0
2017-Dec-04 08:59N 39°55' W 075°08'0 0.0
2017-Dec-04 08:27N 39°55' W 075°08'0 0.0
2017-Dec-04 07:58N 39°55' W 075°08'0 0.0
2017-Dec-04 07:25N 39°55' W 075°08'0 0.0
2017-Dec-04 06:59N 39°55' W 075°08'3 6.2
2017-Dec-04 06:27N 39°53' W 075°11'610.7
2017-Dec-04 05:53N 39°51' W 075°18'3 8.0
2017-Dec-04 05:27N 39°50' W 075°23'0 0.3
2017-Dec-04 05:00N 39°50' W 075°22'510.8
2017-Dec-04 04:30N 39°46' W 075°28'5 9.1
2017-Dec-04 04:00N 39°42' W 075°31'4 8.4
2017-Dec-04 03:30N 39°39' W 075°33'5 9.7
2017-Dec-04 03:00N 39°34' W 075°33'510.9
2017-Dec-04 02:31N 39°29' W 075°34'610.8
2017-Dec-04 01:58N 39°24' W 075°29'611.1
2017-Dec-04 01:28N 39°20' W 075°25'1217.3
2017-Dec-04 00:48N 39°10' W 075°16'2 5.2
2017-Dec-04 00:23N 39°09' W 075°14'615.1
2017-Dec-04 00:00N 39°04' W 075°10'53 6.4
2017-Dec-03 15:45N 39°31' W 074°12'2 9.3
2017-Dec-03 15:30N 39°33' W 074°10'5 9.4
2017-Dec-03 14:59N 39°37' W 074°07'5 9.4
2017-Dec-03 14:27N 39°42' W 074°04'4 9.4
2017-Dec-03 14:00N 39°46' W 074°03'153 8.9
2017-Dec-02 20:44N 41°21' W 071°25'3 9.7
2017-Dec-02 20:25N 41°24' W 071°24'14 9.6
2017-Dec-02 18:58N 41°37' W 071°18'4 9.2
2017-Dec-02 18:30N 41°42' W 071°19'5 9.3
2017-Dec-02 17:58N 41°46' W 071°23'2 0.5
2017-Dec-02 13:13N 41°48' W 071°23'0 0.0
2017-Dec-02 00:35N 41°48' W 071°23'0 6.3
2017-Dec-02 00:30N 41°48' W 071°23'4 8.6
2017-Dec-01 23:59N 41°43' W 071°21'4 8.8
2017-Dec-01 23:30N 41°39' W 071°19'5 8.8
2017-Dec-01 22:55N 41°34' W 071°19'50 7.0
2017-Dec-01 15:46N 41°11' W 072°18'310.6
2017-Dec-01 15:30N 41°10' W 072°21'5 9.8
2017-Dec-01 15:00N 41°08' W 072°27'5 9.1
2017-Dec-01 14:30N 41°06' W 072°33'4 8.7
2017-Dec-01 14:00N 41°04' W 072°38'5 8.4
2017-Dec-01 13:27N 41°04' W 072°44'4 8.2
2017-Dec-01 12:55N 41°03' W 072°50'36 7.7
2017-Dec-01 08:15N 40°56' W 073°37'4 9.2
2017-Dec-01 07:50N 40°54' W 073°41'3 9.3
2017-Dec-01 07:30N 40°52' W 073°45'5 9.1
2017-Dec-01 07:00N 40°48' W 073°48'4 8.8
2017-Dec-01 06:30N 40°48' W 073°53'3 6.8
2017-Dec-01 06:00N 40°46' W 073°57'3 5.9
2017-Dec-01 05:30N 40°43' W 073°58'3 6.0
2017-Dec-01 05:00N 40°41' W 074°01'1 2.8
2017-Dec-01 04:30N 40°40' W 074°00'3 5.5
2017-Dec-01 04:00N 40°39' W 074°03'3 4.9
2017-Dec-01 03:29N 40°39' W 074°07'0 0.0
2017-Dec-01 03:00N 40°39' W 074°07'0 0.0
2017-Dec-01 02:30N 40°39' W 074°07'0 0.0
2017-Dec-01 02:00N 40°39' W 074°07'0 0.0
2017-Dec-01 01:30N 40°39' W 074°07'0 0.0
2017-Dec-01 01:00N 40°39' W 074°07'0 0.0
2017-Dec-01 00:30N 40°39' W 074°07'0 0.0
2017-Dec-01 00:00N 40°39' W 074°07'0 0.0
2017-Nov-30 23:30N 40°39' W 074°07'0 0.0
2017-Nov-30 22:58N 40°39' W 074°07'0 0.0
2017-Nov-30 22:28N 40°39' W 074°07'0 0.0
2017-Nov-30 21:59N 40°39' W 074°07'0 0.0
2017-Nov-30 21:30N 40°39' W 074°07'0 0.0
2017-Nov-30 21:00N 40°39' W 074°07'4 8.7
2017-Nov-30 20:30N 40°40' W 074°01'1 1.4
2017-Nov-30 20:00N 40°40' W 074°00'0 0.0
2017-Nov-30 19:30N 40°40' W 074°00'0 0.0
2017-Nov-30 19:00N 40°40' W 074°00'0 0.0
2017-Nov-30 18:30N 40°40' W 074°00'0 0.0
2017-Nov-30 18:00N 40°40' W 074°00'0 0.0
2017-Nov-30 17:30N 40°40' W 074°00'0 0.0
2017-Nov-30 17:00N 40°40' W 074°00'0 0.0
2017-Nov-30 16:30N 40°40' W 074°00'0 0.0
2017-Nov-30 16:00N 40°40' W 074°00'0 0.0
2017-Nov-30 15:30N 40°40' W 074°00'0 0.0
2017-Nov-30 15:00N 40°40' W 074°00'2 3.4
2017-Nov-30 14:30N 40°41' W 074°02'4 7.0
2017-Nov-30 14:00N 40°44' W 074°01'3 6.9
2017-Nov-30 13:30N 40°47' W 073°59'3 6.9
2017-Nov-30 13:00N 40°51' W 073°57'3 6.7
2017-Nov-30 12:30N 40°54' W 073°56'3 6.7
2017-Nov-30 12:00N 40°57' W 073°54'  
2017-Nov-28 00:41N 41°00' W 073°53'2 8.2
2017-Nov-28 00:28N 40°59' W 073°54'4 8.3
2017-Nov-27 23:59N 40°55' W 073°55'4 8.4
2017-Nov-27 23:30N 40°51' W 073°57'4 8.6
2017-Nov-27 23:00N 40°47' W 073°60'4 8.7
2017-Nov-27 22:30N 40°43' W 074°01'3 5.4
2017-Nov-27 22:00N 40°44' W 073°58'5 9.1
2017-Nov-27 21:30N 40°48' W 073°54'3 6.1
2017-Nov-27 21:00N 40°46' W 073°51'0 0.9
2017-Nov-27 20:29N 40°46' W 073°51'0 0.0
2017-Nov-27 20:00N 40°46' W 073°51'0 0.0
2017-Nov-27 19:30N 40°46' W 073°51'0 0.0
2017-Nov-27 19:00N 40°46' W 073°51'0 0.0
2017-Nov-27 18:30N 40°46' W 073°51'0 0.0
2017-Nov-27 18:00N 40°46' W 073°51'0 0.0
2017-Nov-27 17:30N 40°46' W 073°51'0 0.0
2017-Nov-27 17:00N 40°46' W 073°51'0 0.0
2017-Nov-27 16:30N 40°46' W 073°51'0 0.0
2017-Nov-27 15:59N 40°46' W 073°51'0 0.0
2017-Nov-27 15:30N 40°46' W 073°51'0 0.0
2017-Nov-27 15:00N 40°46' W 073°51'0 0.0
2017-Nov-27 14:30N 40°46' W 073°51'0 0.0
2017-Nov-27 14:00N 40°46' W 073°51'0 0.0
2017-Nov-27 13:30N 40°46' W 073°51'0 0.0
2017-Nov-27 13:00N 40°46' W 073°51'0 0.0
2017-Nov-27 12:29N 40°46' W 073°51'0 0.0
2017-Nov-27 11:59N 40°46' W 073°51'0 0.0
2017-Nov-27 11:31N 40°46' W 073°51'0 0.0
2017-Nov-27 11:00N 40°46' W 073°51'0 0.0
2017-Nov-27 10:30N 40°46' W 073°51'0 0.0
2017-Nov-27 10:00N 40°46' W 073°51'0 0.0
2017-Nov-27 09:30N 40°46' W 073°51'0 0.0
2017-Nov-27 09:00N 40°46' W 073°51'0 0.0
2017-Nov-27 08:30N 40°46' W 073°51'  
Track history (hours):
 
Tides and Currents Weather Stations Pressure Air Temp Water Temp Dewpoint Dewpoint Depression Visibility Wind Speed Wind Dir Waves Ship Positions

Coral Coast

Owner: Dann MarineTowing, LC., Chesapeake City, MD. More information available from US FCC via Universal Licensing System and Coast Guard Vessel Documentation Center.

Last reported at 2017-Dec-07 08:22 UTC. Time now 2017-Dec-14 17:19 UTC.
Position N 41°01' W 073°53'.

Length 70 m; draft 5.3 m.

Type: Tug. MMSI: 367459570.

Date/timePositionNaut miles runAvg speedWind from/ knotsBaromVisibWave heightAir tempDewpointWater temp
2017-Dec-07 08:22N 41°01' W 073°53'3 9.0
2017-Dec-07 08:00N 40°58' W 073°54'5 9.2
2017-Dec-07 07:30N 40°53' W 073°56'5 9.5
2017-Dec-07 07:00N 40°49' W 073°58'5 9.9
2017-Dec-07 06:31N 40°45' W 074°01'3 5.4
2017-Dec-07 06:01N 40°43' W 073°58'5 9.6
2017-Dec-07 05:29N 40°47' W 073°55'3 5.7
2017-Dec-07 05:00N 40°47' W 073°52'1 2.4
2017-Dec-07 04:30N 40°46' W 073°51'0 0.0
2017-Dec-07 04:00N 40°46' W 073°51'0 0.0
2017-Dec-07 03:30N 40°46' W 073°51'0 0.0
2017-Dec-07 03:00N 40°46' W 073°51'0 0.0
2017-Dec-07 02:31N 40°46' W 073°51'0 0.0
2017-Dec-07 02:00N 40°46' W 073°51'0 0.0
2017-Dec-07 01:30N 40°46' W 073°51'0 0.0
2017-Dec-07 01:00N 40°46' W 073°51'0 0.0
2017-Dec-07 00:30N 40°46' W 073°51'0 0.0
2017-Dec-06 23:59N 40°46' W 073°51'0 0.0
2017-Dec-06 23:30N 40°46' W 073°51'0 0.0
2017-Dec-06 23:00N 40°46' W 073°51'0 0.0
2017-Dec-06 22:30N 40°46' W 073°51'0 0.0
2017-Dec-06 22:00N 40°46' W 073°51'0 0.0
2017-Dec-06 21:30N 40°46' W 073°51'0 0.0
2017-Dec-06 21:00N 40°46' W 073°51'  
2017-Dec-04 10:30N 39°55' W 075°08'0 0.0
2017-Dec-04 10:01N 39°55' W 075°08'0 0.0
2017-Dec-04 09:23N 39°55' W 075°08'0 0.0
2017-Dec-04 08:59N 39°55' W 075°08'0 0.0
2017-Dec-04 08:27N 39°55' W 075°08'0 0.0
2017-Dec-04 07:58N 39°55' W 075°08'0 0.0
2017-Dec-04 07:25N 39°55' W 075°08'0 0.0
2017-Dec-04 06:59N 39°55' W 075°08'3 6.2
2017-Dec-04 06:27N 39°53' W 075°11'610.7
2017-Dec-04 05:53N 39°51' W 075°18'3 8.0
2017-Dec-04 05:27N 39°50' W 075°23'0 0.3
2017-Dec-04 05:00N 39°50' W 075°22'510.8
2017-Dec-04 04:30N 39°46' W 075°28'5 9.1
2017-Dec-04 04:00N 39°42' W 075°31'4 8.4
2017-Dec-04 03:30N 39°39' W 075°33'5 9.7
2017-Dec-04 03:00N 39°34' W 075°33'510.9
2017-Dec-04 02:31N 39°29' W 075°34'610.8
2017-Dec-04 01:58N 39°24' W 075°29'611.1
2017-Dec-04 01:28N 39°20' W 075°25'1217.3
2017-Dec-04 00:48N 39°10' W 075°16'2 5.2
2017-Dec-04 00:23N 39°09' W 075°14'615.1
2017-Dec-04 00:00N 39°04' W 075°10'53 6.4
2017-Dec-03 15:45N 39°31' W 074°12'2 9.3
2017-Dec-03 15:30N 39°33' W 074°10'5 9.4
2017-Dec-03 14:59N 39°37' W 074°07'5 9.4
2017-Dec-03 14:27N 39°42' W 074°04'4 9.4
2017-Dec-03 14:00N 39°46' W 074°03'153 8.9
2017-Dec-02 20:44N 41°21' W 071°25'3 9.7
2017-Dec-02 20:25N 41°24' W 071°24'14 9.6
2017-Dec-02 18:58N 41°37' W 071°18'4 9.2
2017-Dec-02 18:30N 41°42' W 071°19'5 9.3
2017-Dec-02 17:58N 41°46' W 071°23'2 0.5
2017-Dec-02 13:13N 41°48' W 071°23'0 0.0
2017-Dec-02 00:35N 41°48' W 071°23'0 6.3
2017-Dec-02 00:30N 41°48' W 071°23'4 8.6
2017-Dec-01 23:59N 41°43' W 071°21'4 8.8
2017-Dec-01 23:30N 41°39' W 071°19'5 8.8
2017-Dec-01 22:55N 41°34' W 071°19'50 7.0
2017-Dec-01 15:46N 41°11' W 072°18'310.6
2017-Dec-01 15:30N 41°10' W 072°21'5 9.8
2017-Dec-01 15:00N 41°08' W 072°27'5 9.1
2017-Dec-01 14:30N 41°06' W 072°33'4 8.7
2017-Dec-01 14:00N 41°04' W 072°38'5 8.4
2017-Dec-01 13:27N 41°04' W 072°44'4 8.2
2017-Dec-01 12:55N 41°03' W 072°50'36 7.7
2017-Dec-01 08:15N 40°56' W 073°37'4 9.2
2017-Dec-01 07:50N 40°54' W 073°41'3 9.3
2017-Dec-01 07:30N 40°52' W 073°45'5 9.1
2017-Dec-01 07:00N 40°48' W 073°48'4 8.8
2017-Dec-01 06:30N 40°48' W 073°53'3 6.8
2017-Dec-01 06:00N 40°46' W 073°57'3 5.9
2017-Dec-01 05:30N 40°43' W 073°58'3 6.0
2017-Dec-01 05:00N 40°41' W 074°01'1 2.8
2017-Dec-01 04:30N 40°40' W 074°00'3 5.5
2017-Dec-01 04:00N 40°39' W 074°03'3 4.9
2017-Dec-01 03:29N 40°39' W 074°07'0 0.0
2017-Dec-01 03:00N 40°39' W 074°07'0 0.0
2017-Dec-01 02:30N 40°39' W 074°07'0 0.0
2017-Dec-01 02:00N 40°39' W 074°07'0 0.0
2017-Dec-01 01:30N 40°39' W 074°07'0 0.0
2017-Dec-01 01:00N 40°39' W 074°07'0 0.0
2017-Dec-01 00:30N 40°39' W 074°07'0 0.0
2017-Dec-01 00:00N 40°39' W 074°07'0 0.0
2017-Nov-30 23:30N 40°39' W 074°07'0 0.0
2017-Nov-30 22:58N 40°39' W 074°07'0 0.0
2017-Nov-30 22:28N 40°39' W 074°07'0 0.0
2017-Nov-30 21:59N 40°39' W 074°07'0 0.0
2017-Nov-30 21:30N 40°39' W 074°07'0 0.0
2017-Nov-30 21:00N 40°39' W 074°07'4 8.7
2017-Nov-30 20:30N 40°40' W 074°01'1 1.4
2017-Nov-30 20:00N 40°40' W 074°00'0 0.0
2017-Nov-30 19:30N 40°40' W 074°00'0 0.0
2017-Nov-30 19:00N 40°40' W 074°00'0 0.0
2017-Nov-30 18:30N 40°40' W 074°00'0 0.0
2017-Nov-30 18:00N 40°40' W 074°00'0 0.0
2017-Nov-30 17:30N 40°40' W 074°00'0 0.0
2017-Nov-30 17:00N 40°40' W 074°00'0 0.0
2017-Nov-30 16:30N 40°40' W 074°00'0 0.0
2017-Nov-30 16:00N 40°40' W 074°00'0 0.0
2017-Nov-30 15:30N 40°40' W 074°00'0 0.0
2017-Nov-30 15:00N 40°40' W 074°00'2 3.4
2017-Nov-30 14:30N 40°41' W 074°02'4 7.0
2017-Nov-30 14:00N 40°44' W 074°01'3 6.9
2017-Nov-30 13:30N 40°47' W 073°59'3 6.9
2017-Nov-30 13:00N 40°51' W 073°57'3 6.7
2017-Nov-30 12:30N 40°54' W 073°56'3 6.7
2017-Nov-30 12:00N 40°57' W 073°54'  
2017-Nov-28 00:41N 41°00' W 073°53'2 8.2
2017-Nov-28 00:28N 40°59' W 073°54'4 8.3
2017-Nov-27 23:59N 40°55' W 073°55'4 8.4
2017-Nov-27 23:30N 40°51' W 073°57'4 8.6
2017-Nov-27 23:00N 40°47' W 073°60'4 8.7
2017-Nov-27 22:30N 40°43' W 074°01'3 5.4
2017-Nov-27 22:00N 40°44' W 073°58'5 9.1
2017-Nov-27 21:30N 40°48' W 073°54'3 6.1
2017-Nov-27 21:00N 40°46' W 073°51'0 0.9
2017-Nov-27 20:29N 40°46' W 073°51'0 0.0
2017-Nov-27 20:00N 40°46' W 073°51'0 0.0
2017-Nov-27 19:30N 40°46' W 073°51'0 0.0
2017-Nov-27 19:00N 40°46' W 073°51'0 0.0
2017-Nov-27 18:30N 40°46' W 073°51'0 0.0
2017-Nov-27 18:00N 40°46' W 073°51'0 0.0
2017-Nov-27 17:30N 40°46' W 073°51'0 0.0
2017-Nov-27 17:00N 40°46' W 073°51'0 0.0
2017-Nov-27 16:30N 40°46' W 073°51'0 0.0
2017-Nov-27 15:59N 40°46' W 073°51'0 0.0
2017-Nov-27 15:30N 40°46' W 073°51'0 0.0
2017-Nov-27 15:00N 40°46' W 073°51'0 0.0
2017-Nov-27 14:30N 40°46' W 073°51'0 0.0
2017-Nov-27 14:00N 40°46' W 073°51'0 0.0
2017-Nov-27 13:30N 40°46' W 073°51'0 0.0
2017-Nov-27 13:00N 40°46' W 073°51'0 0.0
2017-Nov-27 12:29N 40°46' W 073°51'0 0.0
2017-Nov-27 11:59N 40°46' W 073°51'0 0.0
2017-Nov-27 11:31N 40°46' W 073°51'0 0.0
2017-Nov-27 11:00N 40°46' W 073°51'0 0.0
2017-Nov-27 10:30N 40°46' W 073°51'0 0.0
2017-Nov-27 10:00N 40°46' W 073°51'0 0.0
2017-Nov-27 09:30N 40°46' W 073°51'0 0.0
2017-Nov-27 09:00N 40°46' W 073°51'0 0.0
2017-Nov-27 08:30N 40°46' W 073°51'  

Dump ship's entire track history